Walla Walla, WA

9:05 AM PST on January 28, 2015 (GMT -0800)
Whitman | Change Station
CLOSE
Current Station
Personal Weather Station
Location: Walla Walla, WA
Elevation: 994 ft
Nearby Weather Stations

Elev 994 ft 46.07 °N, 118.33 °W | Updated 15 minutes ago

Fog
Fog
33.1 °F
Feels Like 33 °F
N
0.0
Wind Variable Wind from SSW
Gusts 7.0 mph

Today
High -- | Low -- °F
--% Chance of Precip.
Yesterday
High -- | Low -- °F
Precip. -- in
7:20 AM 4:52 PM
Waxing Gibbous, 66% visible
Pressure 30.40 in
Visibility 0.2 miles
Clouds
Windchill 33 °F
Dew Point 32 °F
Humidity 96%
Rainfall 0.00 in
Snow Depth Not available.
UV Not available.
Pollen 2.80 out of 12
Air Quality Not available.
Flu Activity Not available.
METAR KALW 281653Z 21007KT M1/4SM R20/0700V0800FT FG VV001 01/00 A3037 RMK AO2 SLP293 T00060000

More Conditions Fewer Conditions

Pressure 30.40 in
Visibility 0.2 miles
Clouds
Windchill 33 °F
Dew Point 32 °F
Humidity 96%
Rainfall 0.00 in
Snow Depth Not available.
UV Not available.
Pollen 2.80 out of 12
Air Quality Not available.
Flu Activity Not available.
METAR KALW 281653Z 21007KT M1/4SM R20/0700V0800FT FG VV001 01/00 A3037 RMK AO2 SLP293 T00060000

More Conditions Fewer Conditions

Nowcast | as of 8:37 am PST on January 28, 2015

Through 11 am PST...areas of fog will reduce visibilties to under one mile at times this morning. Motorists are urged to use caution when driving and use your low beam headlights.

×

10-Day Weather Forecast

Almanac

Astronomy

Jan. 28, 2015 Rise Set
Actual Time
Civil Twilight
Nautical Twilight
Astronomical Twilight
Moon
Length of Visible Light
Length of Day
Tomorrow will be .
, % of the Moon is Illuminated

Today's Extremes

State Highs State Lows

Community

WunderPhotos

Upload Photos

1,791,204 photos uploaded!

WunderBlogs® & News

Nearby

Air Quality

  Air Quality AQ Index Pollutant
Not available.

Snow Depth

Station Depth Elevation

Earthquake Activity

City Distance Mag. Time & Date
Minimum magnitude displayed is 2.5.

Coastal Water Temperatures

Place Temperature

Nearby Weather Stations